Airfield :
LOGIN :

Register | Disclaimer

   EN    FR    IT 

 










Legend :    VFR   Marginal VFR   IFR   Intensive IFR   Very Intensive IFR
Visi :
Ceiling :
>= 8 km
>= 3000ft
5 to 8 km
1000 to 3000 ft
1500m to 5 km
500 to 1000 ft
800 to 1500m
200 to 500 ft
< 800m
< 200 ft
Symbols :   Thunderstorms  Fog  Heavy snow  Heavy precipitations  Wind > 20 kt
SIGMETs :     Misc.  Thunderstorms  Icing  Turbulence  Mountain Waves  Volcanic Ashes







- Airport Elevation : 137 ft


LIPS - Istrana AFB Treviso

CURRENT METAR :
  • 141955Z 06011KT 9999 -RA FEW025CB SCT030 BKN100 21/19 Q1014 RETS RMK BKN VIS MIN 9999 WIND THR26 03012KT WIND THR08 06012KT BLU

EXPIRED METARs :
  • 141855Z 07010KT 9999 TS FEW025CB SCT030 BKN100 20/19 Q1013 RMK OVC VIS MIN 9999 WIND THR26 03010KT WIND THR08 07012KT BLU
  • 141805Z 04014KT 9999 TS FEW020CB SCT030 23/21 Q1011 RMK OVC BKN110 VIS MIN 9999 WIND THR26 04013KT WIND THR08 07017KT BLU

TAF TAF LIPS
Valid from the 14 at 21:00 until the 15 at 06:00 UTC


142000Z 1421/1506 01008KT 9999 SCT015 SCT060
TEMPO 1421/1422 5000 TSRA FEW010CB BKN040
No reported NOTAMs for that airfield.
2 SIGMETs reported for the Milano FIR (LIMM) :
 
Embedded thunderstorms
LIMM SIGMET 8 VALID 142010/142200 LIIP
LIMM MILANO FIR EMBD TS FCST SE OF LINE N4652 E01224 - N4316 E00925 TOP FL390 MOV E NC=
Severe turbulence
LIMM SIGMET 7 VALID 142000/142200 LIIP
LIMM MILANO FIR SEV TURB FCST W OF LINE N4706 E01140 - N4331 E01111 FL240/380 MOV E NC=



MET'MAP, your aeronautical weather chart ! - Copyright ORBIFLY December 2007 - Disclaimer

ORBIFLY MET'MAP TEAM :

Programming & Development : Alexandra Zaïnal
Concept & Development : Baudouin d'Aumeries
Co-Development & Prog : Marc-Olivier Méhu
Technical & hardware support : Manuel Goepfert

Contact : metmap@orbifly.com




SOURCES & CREDITS :

   NOAA